sensor_id;sensor_type;location;lat;lon;timestamp;temperature;humidity
41838;DHT22;27511;52.042;5.178;2023-02-15T00:01:30;6.60;99.90
41838;DHT22;27511;52.042;5.178;2023-02-15T00:03:55;6.50;99.90
41838;DHT22;27511;52.042;5.178;2023-02-15T00:06:21;6.50;99.90
41838;DHT22;27511;52.042;5.178;2023-02-15T00:08:46;6.40;99.90
41838;DHT22;27511;52.042;5.178;2023-02-15T00:11:13;6.40;99.90
41838;DHT22;27511;52.042;5.178;2023-02-15T00:13:39;6.40;99.90
41838;DHT22;27511;52.042;5.178;2023-02-15T00:16:11;6.40;99.90
41838;DHT22;27511;52.042;5.178;2023-02-15T00:18:40;6.40;99.90
41838;DHT22;27511;52.042;5.178;2023-02-15T00:21:07;6.40;99.90
41838;DHT22;27511;52.042;5.178;2023-02-15T00:23:33;6.30;99.90
41838;DHT22;27511;52.042;5.178;2023-02-15T00:26:06;6.30;99.90
41838;DHT22;27511;52.042;5.178;2023-02-15T00:28:32;6.20;99.90
41838;DHT22;27511;52.042;5.178;2023-02-15T00:31:07;6.20;99.90
41838;DHT22;27511;52.042;5.178;2023-02-15T00:33:33;6.20;99.90
41838;DHT22;27511;52.042;5.178;2023-02-15T00:35:59;6.20;99.90
41838;DHT22;27511;52.042;5.178;2023-02-15T00:38:28;6.20;99.90
41838;DHT22;27511;52.042;5.178;2023-02-15T00:40:54;6.20;99.90
41838;DHT22;27511;52.042;5.178;2023-02-15T00:43:20;6.20;99.90
41838;DHT22;27511;52.042;5.178;2023-02-15T00:45:45;6.20;99.90
41838;DHT22;27511;52.042;5.178;2023-02-15T00:48:11;6.10;99.90
41838;DHT22;27511;52.042;5.178;2023-02-15T00:50:36;6.10;99.90
41838;DHT22;27511;52.042;5.178;2023-02-15T00:53:02;6.10;99.90
41838;DHT22;27511;52.042;5.178;2023-02-15T00:55:27;6.10;99.90
41838;DHT22;27511;52.042;5.178;2023-02-15T00:57:53;6.10;99.90
41838;DHT22;27511;52.042;5.178;2023-02-15T01:00:18;6.00;99.90
41838;DHT22;27511;52.042;5.178;2023-02-15T01:02:44;6.10;99.90
41838;DHT22;27511;52.042;5.178;2023-02-15T01:05:09;6.00;99.90
41838;DHT22;27511;52.042;5.178;2023-02-15T01:07:35;6.10;99.90
41838;DHT22;27511;52.042;5.178;2023-02-15T01:10:00;6.10;99.90
41838;DHT22;27511;52.042;5.178;2023-02-15T01:12:25;6.10;99.90
41838;DHT22;27511;52.042;5.178;2023-02-15T01:14:51;6.10;99.90
41838;DHT22;27511;52.042;5.178;2023-02-15T01:17:16;6.10;99.90
41838;DHT22;27511;52.042;5.178;2023-02-15T01:19:42;6.10;99.90
41838;DHT22;27511;52.042;5.178;2023-02-15T01:22:07;6.10;99.90
41838;DHT22;27511;52.042;5.178;2023-02-15T01:24:33;6.00;99.90
41838;DHT22;27511;52.042;5.178;2023-02-15T01:26:58;6.00;99.90
41838;DHT22;27511;52.042;5.178;2023-02-15T01:29:24;6.00;99.90
41838;DHT22;27511;52.042;5.178;2023-02-15T01:31:49;5.90;99.90
41838;DHT22;27511;52.042;5.178;2023-02-15T01:34:15;5.90;99.90
41838;DHT22;27511;52.042;5.178;2023-02-15T01:36:40;5.90;99.90
41838;DHT22;27511;52.042;5.178;2023-02-15T01:39:05;5.90;99.90
41838;DHT22;27511;52.042;5.178;2023-02-15T01:41:32;5.80;99.90
41838;DHT22;27511;52.042;5.178;2023-02-15T01:43:59;5.90;99.90
41838;DHT22;27511;52.042;5.178;2023-02-15T01:46:33;5.90;99.90
41838;DHT22;27511;52.042;5.178;2023-02-15T01:49:02;5.90;99.90
41838;DHT22;27511;52.042;5.178;2023-02-15T01:51:28;5.90;99.90
41838;DHT22;27511;52.042;5.178;2023-02-15T01:53:59;5.90;99.90
41838;DHT22;27511;52.042;5.178;2023-02-15T01:56:27;5.90;99.90
41838;DHT22;27511;52.042;5.178;2023-02-15T01:58:54;6.00;99.90
41838;DHT22;27511;52.042;5.178;2023-02-15T02:01:23;6.10;99.90
41838;DHT22;27511;52.042;5.178;2023-02-15T02:03:53;6.10;99.90
41838;DHT22;27511;52.042;5.178;2023-02-15T02:06:21;6.10;99.90
41838;DHT22;27511;52.042;5.178;2023-02-15T02:08:47;6.20;99.90
41838;DHT22;27511;52.042;5.178;2023-02-15T02:11:14;6.20;99.90
41838;DHT22;27511;52.042;5.178;2023-02-15T02:13:40;6.20;99.90
41838;DHT22;27511;52.042;5.178;2023-02-15T02:24:11;6.30;99.90
41838;DHT22;27511;52.042;5.178;2023-02-15T02:32:04;6.10;99.90
41838;DHT22;27511;52.042;5.178;2023-02-15T02:34:37;6.10;99.90
41838;DHT22;27511;52.042;5.178;2023-02-15T02:37:24;6.00;99.90
41838;DHT22;27511;52.042;5.178;2023-02-15T02:40:03;6.00;99.90
41838;DHT22;27511;52.042;5.178;2023-02-15T02:45:03;6.00;99.90
41838;DHT22;27511;52.042;5.178;2023-02-15T02:47:32;6.10;99.90
41838;DHT22;27511;52.042;5.178;2023-02-15T02:49:59;6.10;99.90
41838;DHT22;27511;52.042;5.178;2023-02-15T02:52:35;6.10;99.90
41838;DHT22;27511;52.042;5.178;2023-02-15T02:55:05;6.10;99.90
41838;DHT22;27511;52.042;5.178;2023-02-15T02:57:31;6.10;99.90
41838;DHT22;27511;52.042;5.178;2023-02-15T02:59:57;6.10;99.90
41838;DHT22;27511;52.042;5.178;2023-02-15T03:02:26;6.10;99.90
41838;DHT22;27511;52.042;5.178;2023-02-15T03:04:55;6.10;99.90
41838;DHT22;27511;52.042;5.178;2023-02-15T03:07:29;6.10;99.90
41838;DHT22;27511;52.042;5.178;2023-02-15T03:09:56;6.00;99.90
41838;DHT22;27511;52.042;5.178;2023-02-15T03:12:24;6.10;99.90
41838;DHT22;27511;52.042;5.178;2023-02-15T03:14:52;6.10;99.90
41838;DHT22;27511;52.042;5.178;2023-02-15T03:17:20;6.00;99.90
41838;DHT22;27511;52.042;5.178;2023-02-15T03:19:46;6.10;99.90
41838;DHT22;27511;52.042;5.178;2023-02-15T03:22:13;6.00;99.90
41838;DHT22;27511;52.042;5.178;2023-02-15T03:27:06;6.00;99.90
41838;DHT22;27511;52.042;5.178;2023-02-15T03:29:33;5.90;99.90
41838;DHT22;27511;52.042;5.178;2023-02-15T03:32:00;5.90;99.90
41838;DHT22;27511;52.042;5.178;2023-02-15T03:34:27;6.00;99.90
41838;DHT22;27511;52.042;5.178;2023-02-15T03:42:08;6.00;99.90
41838;DHT22;27511;52.042;5.178;2023-02-15T03:44:37;6.00;99.90
41838;DHT22;27511;52.042;5.178;2023-02-15T03:47:15;6.00;99.90
41838;DHT22;27511;52.042;5.178;2023-02-15T03:49:44;6.00;99.90
41838;DHT22;27511;52.042;5.178;2023-02-15T03:52:12;6.00;99.90
41838;DHT22;27511;52.042;5.178;2023-02-15T03:54:39;6.00;99.90
41838;DHT22;27511;52.042;5.178;2023-02-15T03:57:24;6.00;99.90
41838;DHT22;27511;52.042;5.178;2023-02-15T04:05:28;6.00;99.90
41838;DHT22;27511;52.042;5.178;2023-02-15T04:07:53;6.00;99.90
41838;DHT22;27511;52.042;5.178;2023-02-15T04:10:18;6.00;99.90
41838;DHT22;27511;52.042;5.178;2023-02-15T04:13:02;6.00;99.90
41838;DHT22;27511;52.042;5.178;2023-02-15T04:15:28;6.00;99.90
41838;DHT22;27511;52.042;5.178;2023-02-15T04:18:12;6.00;99.90
41838;DHT22;27511;52.042;5.178;2023-02-15T04:20:37;6.00;99.90
41838;DHT22;27511;52.042;5.178;2023-02-15T04:23:24;6.00;99.90
41838;DHT22;27511;52.042;5.178;2023-02-15T04:26:08;6.00;99.90
41838;DHT22;27511;52.042;5.178;2023-02-15T04:28:34;5.90;99.90
41838;DHT22;27511;52.042;5.178;2023-02-15T04:30:59;5.90;99.90
41838;DHT22;27511;52.042;5.178;2023-02-15T04:33:25;5.90;99.90
41838;DHT22;27511;52.042;5.178;2023-02-15T04:35:50;5.90;99.90
41838;DHT22;27511;52.042;5.178;2023-02-15T04:38:16;5.90;99.90
41838;DHT22;27511;52.042;5.178;2023-02-15T04:40:41;5.80;99.90
41838;DHT22;27511;52.042;5.178;2023-02-15T04:43:07;5.90;99.90
41838;DHT22;27511;52.042;5.178;2023-02-15T04:45:32;5.90;99.90
41838;DHT22;27511;52.042;5.178;2023-02-15T04:47:57;5.80;99.90
41838;DHT22;27511;52.042;5.178;2023-02-15T04:50:23;5.80;99.90
41838;DHT22;27511;52.042;5.178;2023-02-15T04:52:48;5.90;99.90
41838;DHT22;27511;52.042;5.178;2023-02-15T04:55:14;5.90;99.90
41838;DHT22;27511;52.042;5.178;2023-02-15T04:57:43;5.80;99.90
41838;DHT22;27511;52.042;5.178;2023-02-15T05:00:08;5.80;99.90
41838;DHT22;27511;52.042;5.178;2023-02-15T05:02:34;5.80;99.90
41838;DHT22;27511;52.042;5.178;2023-02-15T05:04:59;5.80;99.90
41838;DHT22;27511;52.042;5.178;2023-02-15T05:07:25;5.80;99.90
41838;DHT22;27511;52.042;5.178;2023-02-15T05:09:50;5.70;99.90
41838;DHT22;27511;52.042;5.178;2023-02-15T05:12:16;5.80;99.90
41838;DHT22;27511;52.042;5.178;2023-02-15T05:14:41;5.80;99.90
41838;DHT22;27511;52.042;5.178;2023-02-15T05:17:07;5.80;99.90
41838;DHT22;27511;52.042;5.178;2023-02-15T05:19:32;5.70;99.90
41838;DHT22;27511;52.042;5.178;2023-02-15T05:21:57;5.70;99.90
41838;DHT22;27511;52.042;5.178;2023-02-15T05:24:23;5.70;99.90
41838;DHT22;27511;52.042;5.178;2023-02-15T05:27:08;5.70;99.90
41838;DHT22;27511;52.042;5.178;2023-02-15T05:29:54;5.60;99.90
41838;DHT22;27511;52.042;5.178;2023-02-15T05:32:19;5.60;99.90
41838;DHT22;27511;52.042;5.178;2023-02-15T05:34:45;5.60;99.90
41838;DHT22;27511;52.042;5.178;2023-02-15T05:37:10;5.60;99.90
41838;DHT22;27511;52.042;5.178;2023-02-15T05:39:35;5.60;99.90
41838;DHT22;27511;52.042;5.178;2023-02-15T05:42:01;5.60;99.90
41838;DHT22;27511;52.042;5.178;2023-02-15T05:44:27;5.60;99.90
41838;DHT22;27511;52.042;5.178;2023-02-15T05:46:52;5.50;99.90
41838;DHT22;27511;52.042;5.178;2023-02-15T05:49:18;5.60;99.90
41838;DHT22;27511;52.042;5.178;2023-02-15T05:51:43;5.50;99.90
41838;DHT22;27511;52.042;5.178;2023-02-15T05:54:08;5.40;99.90
41838;DHT22;27511;52.042;5.178;2023-02-15T05:56:34;5.50;99.90
41838;DHT22;27511;52.042;5.178;2023-02-15T05:58:59;5.50;99.90
41838;DHT22;27511;52.042;5.178;2023-02-15T06:01:25;5.50;99.90
41838;DHT22;27511;52.042;5.178;2023-02-15T06:03:50;5.50;99.90
41838;DHT22;27511;52.042;5.178;2023-02-15T06:06:17;5.40;99.90
41838;DHT22;27511;52.042;5.178;2023-02-15T06:08:42;5.40;99.90
41838;DHT22;27511;52.042;5.178;2023-02-15T06:11:08;5.50;99.90
41838;DHT22;27511;52.042;5.178;2023-02-15T06:13:33;5.50;99.90
41838;DHT22;27511;52.042;5.178;2023-02-15T06:15:59;5.50;99.90
41838;DHT22;27511;52.042;5.178;2023-02-15T06:18:25;5.40;99.90
41838;DHT22;27511;52.042;5.178;2023-02-15T06:20:50;5.50;99.90
41838;DHT22;27511;52.042;5.178;2023-02-15T06:23:16;5.40;99.90
41838;DHT22;27511;52.042;5.178;2023-02-15T06:25:42;5.40;99.90
41838;DHT22;27511;52.042;5.178;2023-02-15T06:28:07;5.40;99.90
41838;DHT22;27511;52.042;5.178;2023-02-15T06:30:33;5.40;99.90
41838;DHT22;27511;52.042;5.178;2023-02-15T06:32:58;5.40;99.90
41838;DHT22;27511;52.042;5.178;2023-02-15T06:35:24;5.30;99.90
41838;DHT22;27511;52.042;5.178;2023-02-15T06:37:49;5.30;99.90
41838;DHT22;27511;52.042;5.178;2023-02-15T06:40:15;5.30;99.90
41838;DHT22;27511;52.042;5.178;2023-02-15T06:42:41;5.30;99.90
41838;DHT22;27511;52.042;5.178;2023-02-15T06:45:07;5.30;99.90
41838;DHT22;27511;52.042;5.178;2023-02-15T06:47:32;5.30;99.90
41838;DHT22;27511;52.042;5.178;2023-02-15T06:49:58;5.40;99.90
41838;DHT22;27511;52.042;5.178;2023-02-15T06:52:23;5.40;99.90
41838;DHT22;27511;52.042;5.178;2023-02-15T06:54:49;5.40;99.90
41838;DHT22;27511;52.042;5.178;2023-02-15T06:57:14;5.40;99.90
41838;DHT22;27511;52.042;5.178;2023-02-15T06:59:40;5.30;99.90
41838;DHT22;27511;52.042;5.178;2023-02-15T07:02:05;5.20;99.90
41838;DHT22;27511;52.042;5.178;2023-02-15T07:04:31;5.30;99.90
41838;DHT22;27511;52.042;5.178;2023-02-15T07:06:56;5.30;99.90
41838;DHT22;27511;52.042;5.178;2023-02-15T07:09:22;5.30;99.90
41838;DHT22;27511;52.042;5.178;2023-02-15T07:11:47;5.30;99.90
41838;DHT22;27511;52.042;5.178;2023-02-15T07:14:31;5.30;99.90
41838;DHT22;27511;52.042;5.178;2023-02-15T07:16:57;5.20;99.90
41838;DHT22;27511;52.042;5.178;2023-02-15T07:19:22;5.20;99.90
41838;DHT22;27511;52.042;5.178;2023-02-15T07:21:48;5.30;99.90
41838;DHT22;27511;52.042;5.178;2023-02-15T07:24:13;5.30;99.90
41838;DHT22;27511;52.042;5.178;2023-02-15T07:26:39;5.30;99.90
41838;DHT22;27511;52.042;5.178;2023-02-15T07:29:04;5.40;99.90
41838;DHT22;27511;52.042;5.178;2023-02-15T07:31:30;5.40;99.90
41838;DHT22;27511;52.042;5.178;2023-02-15T07:33:55;5.40;99.90
41838;DHT22;27511;52.042;5.178;2023-02-15T07:36:21;5.40;99.90
41838;DHT22;27511;52.042;5.178;2023-02-15T07:38:46;5.40;99.90
41838;DHT22;27511;52.042;5.178;2023-02-15T07:41:13;5.40;99.90
41838;DHT22;27511;52.042;5.178;2023-02-15T07:43:40;5.40;99.90
41838;DHT22;27511;52.042;5.178;2023-02-15T07:46:07;5.30;99.90
41838;DHT22;27511;52.042;5.178;2023-02-15T07:48:33;5.40;99.90
41838;DHT22;27511;52.042;5.178;2023-02-15T07:50:59;5.40;99.90
41838;DHT22;27511;52.042;5.178;2023-02-15T07:53:24;5.40;99.90
41838;DHT22;27511;52.042;5.178;2023-02-15T07:55:50;5.40;99.90
41838;DHT22;27511;52.042;5.178;2023-02-15T07:58:18;5.50;99.90
41838;DHT22;27511;52.042;5.178;2023-02-15T08:00:43;5.50;99.90
41838;DHT22;27511;52.042;5.178;2023-02-15T08:03:26;5.60;99.90
41838;DHT22;27511;52.042;5.178;2023-02-15T08:05:58;5.60;99.90
41838;DHT22;27511;52.042;5.178;2023-02-15T08:08:30;5.70;99.90
41838;DHT22;27511;52.042;5.178;2023-02-15T08:13:46;5.60;99.90
41838;DHT22;27511;52.042;5.178;2023-02-15T08:18:56;5.60;99.90
41838;DHT22;27511;52.042;5.178;2023-02-15T08:21:22;5.40;99.90
41838;DHT22;27511;52.042;5.178;2023-02-15T08:23:48;5.50;99.90
41838;DHT22;27511;52.042;5.178;2023-02-15T08:26:13;5.50;99.90
41838;DHT22;27511;52.042;5.178;2023-02-15T08:28:40;5.50;99.90
41838;DHT22;27511;52.042;5.178;2023-02-15T08:31:06;5.70;99.90
41838;DHT22;27511;52.042;5.178;2023-02-15T08:33:32;5.80;99.90
41838;DHT22;27511;52.042;5.178;2023-02-15T08:36:09;5.80;99.90
41838;DHT22;27511;52.042;5.178;2023-02-15T08:38:35;5.90;99.90
41838;DHT22;27511;52.042;5.178;2023-02-15T08:43:35;6.00;99.90
41838;DHT22;27511;52.042;5.178;2023-02-15T08:46:01;6.20;99.90
41838;DHT22;27511;52.042;5.178;2023-02-15T08:48:26;6.20;99.90
41838;DHT22;27511;52.042;5.178;2023-02-15T08:50:52;6.30;99.90
41838;DHT22;27511;52.042;5.178;2023-02-15T08:53:18;6.40;99.90
41838;DHT22;27511;52.042;5.178;2023-02-15T08:55:47;6.50;99.90
41838;DHT22;27511;52.042;5.178;2023-02-15T08:58:12;6.50;99.90
41838;DHT22;27511;52.042;5.178;2023-02-15T09:00:38;6.50;99.90
41838;DHT22;27511;52.042;5.178;2023-02-15T09:03:03;6.50;99.90
41838;DHT22;27511;52.042;5.178;2023-02-15T09:05:29;6.60;99.90
41838;DHT22;27511;52.042;5.178;2023-02-15T09:07:54;6.70;99.90
41838;DHT22;27511;52.042;5.178;2023-02-15T09:10:20;6.70;99.90
41838;DHT22;27511;52.042;5.178;2023-02-15T09:12:45;6.80;99.90
41838;DHT22;27511;52.042;5.178;2023-02-15T09:15:11;6.90;99.90
41838;DHT22;27511;52.042;5.178;2023-02-15T09:17:36;7.00;99.90
41838;DHT22;27511;52.042;5.178;2023-02-15T09:20:02;7.00;99.90
41838;DHT22;27511;52.042;5.178;2023-02-15T09:22:27;7.10;99.90
41838;DHT22;27511;52.042;5.178;2023-02-15T09:24:53;7.10;99.90
41838;DHT22;27511;52.042;5.178;2023-02-15T09:27:19;7.20;99.90
41838;DHT22;27511;52.042;5.178;2023-02-15T09:29:44;7.30;99.90
41838;DHT22;27511;52.042;5.178;2023-02-15T09:32:09;7.30;99.90
41838;DHT22;27511;52.042;5.178;2023-02-15T09:34:38;7.30;99.90
41838;DHT22;27511;52.042;5.178;2023-02-15T09:37:04;7.50;99.90
41838;DHT22;27511;52.042;5.178;2023-02-15T09:39:30;7.50;99.90
41838;DHT22;27511;52.042;5.178;2023-02-15T09:49:31;7.70;99.90
41838;DHT22;27511;52.042;5.178;2023-02-15T09:54:30;7.80;99.90
41838;DHT22;27511;52.042;5.178;2023-02-15T09:56:58;7.90;99.90
41838;DHT22;27511;52.042;5.178;2023-02-15T09:59:28;7.90;99.90
41838;DHT22;27511;52.042;5.178;2023-02-15T10:06:57;8.20;99.90
41838;DHT22;27511;52.042;5.178;2023-02-15T10:28:16;8.90;99.90
41838;DHT22;27511;52.042;5.178;2023-02-15T10:33:23;9.00;99.90
41838;DHT22;27511;52.042;5.178;2023-02-15T10:36:00;9.10;99.90
41838;DHT22;27511;52.042;5.178;2023-02-15T10:43:41;9.50;99.90
41838;DHT22;27511;52.042;5.178;2023-02-15T10:46:23;9.60;99.90
41838;DHT22;27511;52.042;5.178;2023-02-15T10:57:30;10.10;99.90
41838;DHT22;27511;52.042;5.178;2023-02-15T11:02:49;10.20;99.90
41838;DHT22;27511;52.042;5.178;2023-02-15T11:05:35;10.30;99.90
41838;DHT22;27511;52.042;5.178;2023-02-15T11:07:43;10.40;99.90
41838;DHT22;27511;52.042;5.178;2023-02-15T11:10:27;10.40;99.90
41838;DHT22;27511;52.042;5.178;2023-02-15T11:12:56;10.50;99.90
41838;DHT22;27511;52.042;5.178;2023-02-15T11:15:29;10.60;99.90
41838;DHT22;27511;52.042;5.178;2023-02-15T11:17:57;10.60;99.90
41838;DHT22;27511;52.042;5.178;2023-02-15T11:20:33;10.60;99.90
41838;DHT22;27511;52.042;5.178;2023-02-15T11:23:00;10.80;99.90
41838;DHT22;27511;52.042;5.178;2023-02-15T11:25:33;10.90;99.90
41838;DHT22;27511;52.042;5.178;2023-02-15T11:28:00;11.00;99.90
41838;DHT22;27511;52.042;5.178;2023-02-15T11:30:32;11.00;99.90
41838;DHT22;27511;52.042;5.178;2023-02-15T11:33:01;11.10;99.90
41838;DHT22;27511;52.042;5.178;2023-02-15T11:35:28;11.30;99.90
41838;DHT22;27511;52.042;5.178;2023-02-15T11:40:53;11.40;99.90
41838;DHT22;27511;52.042;5.178;2023-02-15T11:45:47;11.80;99.90
41838;DHT22;27511;52.042;5.178;2023-02-15T11:48:13;11.90;99.90
41838;DHT22;27511;52.042;5.178;2023-02-15T11:50:39;11.90;99.90
41838;DHT22;27511;52.042;5.178;2023-02-15T11:53:12;12.10;99.90
41838;DHT22;27511;52.042;5.178;2023-02-15T11:55:38;12.20;99.90
41838;DHT22;27511;52.042;5.178;2023-02-15T12:00:37;12.40;99.90
41838;DHT22;27511;52.042;5.178;2023-02-15T12:03:12;12.40;99.90
41838;DHT22;27511;52.042;5.178;2023-02-15T12:05:40;12.40;99.90
41838;DHT22;27511;52.042;5.178;2023-02-15T12:08:12;12.40;99.90
41838;DHT22;27511;52.042;5.178;2023-02-15T12:10:41;12.60;99.90
41838;DHT22;27511;52.042;5.178;2023-02-15T12:15:34;12.80;99.90
41838;DHT22;27511;52.042;5.178;2023-02-15T12:18:00;12.80;99.90
41838;DHT22;27511;52.042;5.178;2023-02-15T12:20:29;12.90;99.90
41838;DHT22;27511;52.042;5.178;2023-02-15T12:23:00;13.00;99.90
41838;DHT22;27511;52.042;5.178;2023-02-15T12:28:00;13.20;99.90
41838;DHT22;27511;52.042;5.178;2023-02-15T12:30:30;13.30;99.90
41838;DHT22;27511;52.042;5.178;2023-02-15T12:33:39;13.40;99.90
41838;DHT22;27511;52.042;5.178;2023-02-15T12:35:44;13.60;99.90
41838;DHT22;27511;52.042;5.178;2023-02-15T12:40:39;13.50;99.90
41838;DHT22;27511;52.042;5.178;2023-02-15T12:43:08;13.70;99.90
41838;DHT22;27511;52.042;5.178;2023-02-15T12:45:49;13.80;99.90
41838;DHT22;27511;52.042;5.178;2023-02-15T12:48:20;13.80;99.90
41838;DHT22;27511;52.042;5.178;2023-02-15T12:50:47;13.80;99.90
41838;DHT22;27511;52.042;5.178;2023-02-15T12:53:18;14.00;99.90
41838;DHT22;27511;52.042;5.178;2023-02-15T12:58:20;14.00;99.90
41838;DHT22;27511;52.042;5.178;2023-02-15T13:00:46;14.20;99.90
41838;DHT22;27511;52.042;5.178;2023-02-15T13:03:19;14.30;99.90
41838;DHT22;27511;52.042;5.178;2023-02-15T13:05:46;14.60;99.90
41838;DHT22;27511;52.042;5.178;2023-02-15T13:08:15;14.70;99.90
41838;DHT22;27511;52.042;5.178;2023-02-15T13:13:10;15.00;99.90
41838;DHT22;27511;52.042;5.178;2023-02-15T13:15:37;15.10;99.90
41838;DHT22;27511;52.042;5.178;2023-02-15T13:18:04;15.20;99.90
41838;DHT22;27511;52.042;5.178;2023-02-15T13:20:30;15.40;99.90
41838;DHT22;27511;52.042;5.178;2023-02-15T13:23:01;15.40;99.90
41838;DHT22;27511;52.042;5.178;2023-02-15T13:25:31;15.40;99.90
41838;DHT22;27511;52.042;5.178;2023-02-15T13:28:03;15.40;99.90
41838;DHT22;27511;52.042;5.178;2023-02-15T13:30:34;15.40;99.90
41838;DHT22;27511;52.042;5.178;2023-02-15T13:33:04;15.40;99.90
41838;DHT22;27511;52.042;5.178;2023-02-15T13:35:39;15.30;99.90
41838;DHT22;27511;52.042;5.178;2023-02-15T13:41:01;15.20;99.90
41838;DHT22;27511;52.042;5.178;2023-02-15T13:43:33;15.10;99.90
41838;DHT22;27511;52.042;5.178;2023-02-15T13:51:12;15.20;99.90
41838;DHT22;27511;52.042;5.178;2023-02-15T14:01:31;15.20;99.90
41838;DHT22;27511;52.042;5.178;2023-02-15T14:19:46;15.00;99.90
41838;DHT22;27511;52.042;5.178;2023-02-15T14:22:21;15.10;99.90
41838;DHT22;27511;52.042;5.178;2023-02-15T14:24:59;15.10;99.90
41838;DHT22;27511;52.042;5.178;2023-02-15T14:27:39;14.90;99.90
41838;DHT22;27511;52.042;5.178;2023-02-15T14:30:15;14.90;99.90
41838;DHT22;27511;52.042;5.178;2023-02-15T14:33:06;14.80;99.90
41838;DHT22;27511;52.042;5.178;2023-02-15T14:35:29;14.70;99.90
41838;DHT22;27511;52.042;5.178;2023-02-15T14:40:31;14.70;99.90
41838;DHT22;27511;52.042;5.178;2023-02-15T14:43:20;14.70;99.90
41838;DHT22;27511;52.042;5.178;2023-02-15T14:45:59;14.90;99.90
41838;DHT22;27511;52.042;5.178;2023-02-15T14:48:33;14.80;99.90
41838;DHT22;27511;52.042;5.178;2023-02-15T14:51:00;14.70;99.90
41838;DHT22;27511;52.042;5.178;2023-02-15T14:58:38;14.60;99.90
41838;DHT22;27511;52.042;5.178;2023-02-15T15:01:29;14.50;99.90
41838;DHT22;27511;52.042;5.178;2023-02-15T15:03:57;14.40;99.90
41838;DHT22;27511;52.042;5.178;2023-02-15T15:06:28;14.50;99.90
41838;DHT22;27511;52.042;5.178;2023-02-15T15:08:59;14.40;99.90
41838;DHT22;27511;52.042;5.178;2023-02-15T15:13:57;14.50;99.90
41838;DHT22;27511;52.042;5.178;2023-02-15T15:16:23;14.40;99.90
41838;DHT22;27511;52.042;5.178;2023-02-15T15:18:49;14.50;99.90
41838;DHT22;27511;52.042;5.178;2023-02-15T15:23:59;14.20;99.90
41838;DHT22;27511;52.042;5.178;2023-02-15T15:26:26;14.00;99.90
41838;DHT22;27511;52.042;5.178;2023-02-15T15:42:01;14.10;99.90
41838;DHT22;27511;52.042;5.178;2023-02-15T15:45:14;14.10;99.90
41838;DHT22;27511;52.042;5.178;2023-02-15T15:47:31;14.00;99.90
41838;DHT22;27511;52.042;5.178;2023-02-15T15:50:00;14.00;99.90
41838;DHT22;27511;52.042;5.178;2023-02-15T15:52:26;14.00;99.90
41838;DHT22;27511;52.042;5.178;2023-02-15T15:54:56;13.90;99.90
41838;DHT22;27511;52.042;5.178;2023-02-15T15:57:27;14.00;99.90
41838;DHT22;27511;52.042;5.178;2023-02-15T15:59:54;13.80;99.90
41838;DHT22;27511;52.042;5.178;2023-02-15T16:02:20;13.70;99.90
41838;DHT22;27511;52.042;5.178;2023-02-15T16:04:48;13.80;99.90
41838;DHT22;27511;52.042;5.178;2023-02-15T16:07:22;13.80;99.90
41838;DHT22;27511;52.042;5.178;2023-02-15T16:10:02;13.70;99.90
41838;DHT22;27511;52.042;5.178;2023-02-15T16:12:39;13.80;99.90
41838;DHT22;27511;52.042;5.178;2023-02-15T16:15:20;13.80;99.90
41838;DHT22;27511;52.042;5.178;2023-02-15T16:17:49;13.80;99.90
41838;DHT22;27511;52.042;5.178;2023-02-15T16:20:17;13.80;99.90
41838;DHT22;27511;52.042;5.178;2023-02-15T16:22:44;13.70;99.90
41838;DHT22;27511;52.042;5.178;2023-02-15T16:25:20;13.80;99.90
41838;DHT22;27511;52.042;5.178;2023-02-15T16:27:48;13.70;99.90
41838;DHT22;27511;52.042;5.178;2023-02-15T16:32:42;13.60;99.90
41838;DHT22;27511;52.042;5.178;2023-02-15T16:35:15;13.50;99.90
41838;DHT22;27511;52.042;5.178;2023-02-15T16:37:41;13.50;99.90
41838;DHT22;27511;52.042;5.178;2023-02-15T16:42:57;13.30;99.90
41838;DHT22;27511;52.042;5.178;2023-02-15T16:45:28;13.20;99.90
41838;DHT22;27511;52.042;5.178;2023-02-15T16:47:55;13.10;99.90
41838;DHT22;27511;52.042;5.178;2023-02-15T16:50:23;13.10;99.90
41838;DHT22;27511;52.042;5.178;2023-02-15T16:52:49;13.00;99.90
41838;DHT22;27511;52.042;5.178;2023-02-15T16:55:24;13.00;99.90
41838;DHT22;27511;52.042;5.178;2023-02-15T16:57:56;12.80;99.90
41838;DHT22;27511;52.042;5.178;2023-02-15T17:00:28;12.80;99.90
41838;DHT22;27511;52.042;5.178;2023-02-15T17:02:59;12.70;99.90
41838;DHT22;27511;52.042;5.178;2023-02-15T17:05:42;12.70;99.90
41838;DHT22;27511;52.042;5.178;2023-02-15T17:08:16;12.60;99.90
41838;DHT22;27511;52.042;5.178;2023-02-15T17:11:05;12.40;99.90
41838;DHT22;27511;52.042;5.178;2023-02-15T17:13:28;12.40;99.90
41838;DHT22;27511;52.042;5.178;2023-02-15T17:21:00;12.20;99.90
41838;DHT22;27511;52.042;5.178;2023-02-15T17:23:31;12.30;99.90
41838;DHT22;27511;52.042;5.178;2023-02-15T17:25:58;12.00;99.90
41838;DHT22;27511;52.042;5.178;2023-02-15T17:28:26;12.10;99.90
41838;DHT22;27511;52.042;5.178;2023-02-15T17:30:53;11.90;99.90
41838;DHT22;27511;52.042;5.178;2023-02-15T17:33:26;11.90;99.90
41838;DHT22;27511;52.042;5.178;2023-02-15T17:36:08;12.00;99.90
41838;DHT22;27511;52.042;5.178;2023-02-15T17:38:34;11.90;99.90
41838;DHT22;27511;52.042;5.178;2023-02-15T17:41:00;11.80;99.90
41838;DHT22;27511;52.042;5.178;2023-02-15T17:43:29;11.80;99.90
41838;DHT22;27511;52.042;5.178;2023-02-15T17:45:54;11.80;99.90
41838;DHT22;27511;52.042;5.178;2023-02-15T17:48:21;11.70;99.90
41838;DHT22;27511;52.042;5.178;2023-02-15T17:50:47;11.70;99.90
41838;DHT22;27511;52.042;5.178;2023-02-15T17:53:14;11.70;99.90
41838;DHT22;27511;52.042;5.178;2023-02-15T17:55:40;11.80;99.90
41838;DHT22;27511;52.042;5.178;2023-02-15T17:58:11;11.70;99.90
41838;DHT22;27511;52.042;5.178;2023-02-15T18:00:46;11.70;99.90
41838;DHT22;27511;52.042;5.178;2023-02-15T18:03:38;11.70;99.90
41838;DHT22;27511;52.042;5.178;2023-02-15T18:06:23;11.80;99.90
41838;DHT22;27511;52.042;5.178;2023-02-15T18:09:14;11.70;99.90
41838;DHT22;27511;52.042;5.178;2023-02-15T18:11:59;11.70;99.90
41838;DHT22;27511;52.042;5.178;2023-02-15T18:14:24;11.60;99.90
41838;DHT22;27511;52.042;5.178;2023-02-15T18:16:50;11.60;99.90
41838;DHT22;27511;52.042;5.178;2023-02-15T18:19:22;11.60;99.90
41838;DHT22;27511;52.042;5.178;2023-02-15T18:21:49;11.60;99.90
41838;DHT22;27511;52.042;5.178;2023-02-15T18:24:20;11.60;99.90
41838;DHT22;27511;52.042;5.178;2023-02-15T18:26:48;11.50;99.90
41838;DHT22;27511;52.042;5.178;2023-02-15T18:29:14;11.50;99.90
41838;DHT22;27511;52.042;5.178;2023-02-15T18:31:39;11.60;99.90
41838;DHT22;27511;52.042;5.178;2023-02-15T18:34:05;11.50;99.90
41838;DHT22;27511;52.042;5.178;2023-02-15T18:36:43;11.50;99.90
41838;DHT22;27511;52.042;5.178;2023-02-15T18:41:51;11.40;99.90
41838;DHT22;27511;52.042;5.178;2023-02-15T18:44:16;11.40;99.90
41838;DHT22;27511;52.042;5.178;2023-02-15T18:46:42;11.40;99.90
41838;DHT22;27511;52.042;5.178;2023-02-15T18:49:07;11.40;99.90
41838;DHT22;27511;52.042;5.178;2023-02-15T18:51:33;11.40;99.90